Time;durP1;ratioP1;P1;durP2;ratioP2;P2;SDS_P1;SDS_P2;PMS_P1;PMS_P2;Temp;Humidity;BMP_temperature;BMP_pressure;BME280_temperature;BME280_humidity;BME280_pressure;Samples;Min_cycle;Max_cycle;Signal;HPM_P1;HPM_P2
2023/09/29 00:00:58;;;;;;;3.47;2.33;;;18.00;99.90;;;;;;5051245;28;20480;-68
2023/09/29 00:03:27;;;;;;;4.47;2.45;;;17.90;99.90;;;;;;5046391;28;20463;-68
2023/09/29 00:05:55;;;;;;;4.95;2.88;;;17.50;99.90;;;;;;5050846;28;20059;-67
2023/09/29 00:08:22;;;;;;;7.05;3.50;;;17.50;99.90;;;;;;5028554;28;20037;-68
2023/09/29 00:10:51;;;;;;;8.43;2.80;;;17.60;99.90;;;;;;5049822;28;20053;-68
2023/09/29 00:13:20;;;;;;;5.43;2.63;;;17.70;99.90;;;;;;5054162;28;20026;-68
2023/09/29 00:15:48;;;;;;;6.05;2.33;;;17.70;99.90;;;;;;5049439;28;20425;-68
2023/09/29 00:18:15;;;;;;;6.00;3.00;;;17.70;99.90;;;;;;5046680;28;20389;-68
2023/09/29 00:21:48;;;;;;;9.23;2.80;;;17.70;99.90;;;;;;5048978;28;20105;-69
2023/09/29 00:24:20;;;;;;;7.45;2.85;;;17.70;99.90;;;;;;5044919;28;20049;-69
2023/09/29 00:27:04;;;;;;;6.82;3.00;;;17.70;99.90;;;;;;5047112;28;20440;-69
2023/09/29 00:29:57;;;;;;;6.60;2.88;;;17.70;99.90;;;;;;5048292;28;20037;-69
2023/09/29 00:32:57;;;;;;;7.38;3.55;;;17.80;99.90;;;;;;5044090;28;20033;-69
2023/09/29 00:35:37;;;;;;;9.68;3.55;;;17.80;99.90;;;;;;5043407;28;20457;-68
2023/09/29 00:38:04;;;;;;;4.78;2.67;;;17.80;99.90;;;;;;5048682;28;20117;-69
2023/09/29 00:40:38;;;;;;;5.45;2.92;;;17.80;99.90;;;;;;5048822;28;20412;-68
2023/09/29 00:43:29;;;;;;;6.88;2.47;;;17.90;99.90;;;;;;5048389;28;20496;-69
2023/09/29 00:46:03;;;;;;;6.13;3.17;;;17.90;99.90;;;;;;5048358;28;20133;-69
2023/09/29 00:49:15;;;;;;;9.52;3.35;;;18.00;99.90;;;;;;5032270;28;20131;-69
2023/09/29 00:51:48;;;;;;;6.85;3.38;;;18.00;99.90;;;;;;5045982;28;20111;-69
2023/09/29 00:54:37;;;;;;;7.10;3.63;;;17.70;99.90;;;;;;5031501;28;20055;-68
2023/09/29 00:58:00;;;;;;;8.63;3.47;;;17.50;99.90;;;;;;5025959;28;20025;-68
2023/09/29 01:01:06;;;;;;;8.23;3.63;;;17.40;99.90;;;;;;4945365;28;20110;-68
2023/09/29 01:04:06;;;;;;;10.52;4.45;;;17.20;99.90;;;;;;4945309;28;20142;-69
2023/09/29 01:06:31;;;;;;;7.30;3.90;;;17.30;99.90;;;;;;4889611;29;20037;-69
2023/09/29 01:10:06;;;;;;;5.57;2.90;;;17.30;99.90;;;;;;4877423;29;20045;-69
2023/09/29 01:13:01;;;;;;;5.75;2.80;;;17.20;99.90;;;;;;4891168;29;20051;-69
2023/09/29 01:15:42;;;;;;;6.35;2.65;;;17.20;99.90;;;;;;4931883;28;20561;-69
2023/09/29 01:18:16;;;;;;;;;;;17.20;99.90;;;;;;4953791;28;20085;-68
2023/09/29 01:21:08;;;;;;;7.65;2.60;;;17.20;99.90;;;;;;4969892;28;20009;-68
2023/09/29 01:23:46;;;;;;;6.30;2.95;;;17.10;99.90;;;;;;4973887;28;20047;-69
2023/09/29 01:26:11;;;;;;;5.03;2.53;;;17.10;99.90;;;;;;4964971;28;20038;-68
2023/09/29 01:28:58;;;;;;;4.68;2.33;;;17.00;99.90;;;;;;4972386;28;20039;-68
2023/09/29 01:32:10;;;;;;;7.10;3.47;;;17.00;99.90;;;;;;4953620;28;20558;-68
2023/09/29 01:36:08;;;;;;;5.85;2.58;;;17.10;99.90;;;;;;4963480;28;20043;-69
2023/09/29 01:38:43;;;;;;;5.25;2.45;;;17.10;99.90;;;;;;4925217;29;20477;-69
2023/09/29 01:41:29;;;;;;;6.18;2.80;;;17.10;99.90;;;;;;4904744;29;20115;-69
2023/09/29 01:43:55;;;;;;;3.75;2.38;;;17.30;99.90;;;;;;4940990;28;20077;-69
2023/09/29 01:47:38;;;;;;;6.72;2.95;;;17.30;99.90;;;;;;4934346;29;20703;-70
2023/09/29 01:50:49;;;;;;;6.50;2.53;;;17.40;99.90;;;;;;4967539;28;20042;-69
2023/09/29 01:53:24;;;;;;;;;;;17.50;99.90;;;;;;4933343;29;20047;-69
2023/09/29 01:56:17;;;;;;;5.15;2.40;;;17.40;99.90;;;;;;4949899;29;20147;-69
2023/09/29 01:59:33;;;;;;;4.75;2.42;;;17.40;99.90;;;;;;4947864;28;20138;-69
2023/09/29 02:02:29;;;;;;;5.88;2.10;;;17.40;99.90;;;;;;4926578;29;20114;-69
2023/09/29 02:05:12;;;;;;;6.43;2.88;;;17.30;99.90;;;;;;4926208;29;20086;-69
2023/09/29 02:07:50;;;;;;;4.78;2.78;;;17.20;99.90;;;;;;4893737;29;20044;-70
2023/09/29 02:10:26;;;;;;;4.15;2.22;;;17.10;99.90;;;;;;4917672;29;20047;-69
2023/09/29 02:12:59;;;;;;;5.78;2.30;;;17.20;99.90;;;;;;4956615;28;20034;-69
2023/09/29 02:15:56;;;;;;;4.90;2.35;;;17.10;99.90;;;;;;4966235;28;20043;-69
2023/09/29 02:18:40;;;;;;;4.22;2.35;;;17.00;99.90;;;;;;4971987;28;20048;-69
2023/09/29 02:24:40;;;;;;;10.27;3.05;;;16.80;99.90;;;;;;4944916;29;20054;-68
2023/09/29 02:27:16;;;;;;;7.47;3.10;;;16.70;99.90;;;;;;4945813;29;20168;-69
2023/09/29 02:30:04;;;;;;;4.50;2.65;;;16.60;99.90;;;;;;4972392;28;20046;-68
2023/09/29 02:32:59;;;;;;;4.72;2.38;;;16.50;99.90;;;;;;4958417;28;20454;-69
2023/09/29 02:36:16;;;;;;;7.28;2.67;;;16.60;99.90;;;;;;4967148;28;20039;-68
2023/09/29 02:38:50;;;;;;;5.63;3.15;;;16.50;99.90;;;;;;4873299;29;20033;-69
2023/09/29 02:41:16;;;;;;;4.15;1.85;;;16.40;99.90;;;;;;4932905;28;20522;-68
2023/09/29 02:43:46;;;;;;;4.32;2.22;;;16.40;99.90;;;;;;4990747;28;20046;-68
2023/09/29 02:47:20;;;;;;;8.35;2.50;;;16.50;99.90;;;;;;4975579;28;20035;-69
2023/09/29 02:49:59;;;;;;;4.93;2.70;;;16.60;99.90;;;;;;4927183;29;20040;-69
2023/09/29 02:53:10;;;;;;;11.02;2.42;;;16.70;99.90;;;;;;4933713;29;20032;-69
2023/09/29 03:00:34;;;;;;;3.20;2.28;;;16.90;99.90;;;;;;4855293;29;20395;-69
2023/09/29 03:03:09;;;;;;;4.82;1.95;;;17.00;99.90;;;;;;4800348;29;20442;-69
2023/09/29 03:05:49;;;;;;;4.32;2.50;;;17.00;99.90;;;;;;4814681;29;20178;-69
2023/09/29 03:08:21;;;;;;;4.15;2.10;;;17.10;99.90;;;;;;4844019;29;20621;-69
2023/09/29 03:10:59;;;;;;;5.05;2.78;;;17.20;99.90;;;;;;4912310;29;20055;-69
2023/09/29 03:13:37;;;;;;;8.65;2.70;;;17.20;99.90;;;;;;4937582;28;20046;-69
2023/09/29 03:16:24;;;;;;;8.05;2.42;;;17.20;99.90;;;;;;4951257;28;20031;-69
2023/09/29 03:18:56;;;;;;;4.28;2.03;;;17.20;99.90;;;;;;4970756;28;20054;-69
2023/09/29 03:22:02;;;;;;;5.97;2.03;;;17.30;99.90;;;;;;4956014;28;20038;-68
2023/09/29 03:24:28;;;;;;;4.97;2.22;;;17.30;99.90;;;;;;4971390;28;20043;-68
2023/09/29 03:27:03;;;;;;;3.85;1.67;;;17.40;99.90;;;;;;4963379;28;20046;-70
2023/09/29 03:30:10;;;;;;;5.95;2.20;;;17.40;99.90;;;;;;5009952;28;20371;-69
2023/09/29 03:32:36;;;;;;;6.72;2.67;;;17.40;99.90;;;;;;5050088;28;20033;-69
2023/09/29 03:35:08;;;;;;;5.68;2.20;;;17.50;99.90;;;;;;5050377;28;20119;-68
2023/09/29 03:37:39;;;;;;;5.15;2.00;;;17.70;99.90;;;;;;5051562;28;20029;-68
2023/09/29 03:40:14;;;;;;;4.70;2.17;;;17.70;99.90;;;;;;5051259;28;20028;-69
2023/09/29 03:45:29;;;;;;;3.53;2.13;;;17.80;99.90;;;;;;5025259;28;20537;-69
2023/09/29 03:47:54;;;;;;;5.20;2.10;;;17.80;99.90;;;;;;5011902;28;20076;-69
2023/09/29 03:50:23;;;;;;;5.72;2.65;;;17.80;99.90;;;;;;5023959;28;20033;-69
2023/09/29 03:52:49;;;;;;;7.57;2.60;;;17.80;99.90;;;;;;5028949;28;20025;-69
2023/09/29 03:55:16;;;;;;;4.53;2.28;;;17.80;99.90;;;;;;5022513;28;20026;-69
2023/09/29 03:57:51;;;;;;;5.70;2.65;;;17.80;99.90;;;;;;5029530;28;20041;-69
2023/09/29 04:00:21;;;;;;;6.07;2.10;;;17.60;99.90;;;;;;5045968;28;20514;-68
2023/09/29 04:03:02;;;;;;;6.70;2.53;;;17.60;99.90;;;;;;5026500;28;20041;-69
2023/09/29 04:06:05;;;;;;;;;;;17.50;99.90;;;;;;5029358;28;20066;-68
2023/09/29 04:08:37;;;;;;;4.78;2.03;;;17.50;99.90;;;;;;5022886;28;19913;-69
2023/09/29 04:11:15;;;;;;;6.93;2.38;;;17.40;99.90;;;;;;5029126;28;20041;-68
2023/09/29 04:13:44;;;;;;;4.20;2.03;;;17.40;99.90;;;;;;5011776;28;20040;-68
2023/09/29 04:17:04;;;;;;;5.80;2.88;;;17.40;99.90;;;;;;5029239;28;20047;-69
2023/09/29 04:20:08;;;;;;;5.18;2.92;;;17.30;99.90;;;;;;5025333;28;20105;-68
2023/09/29 04:22:37;;;;;;;5.63;2.92;;;17.30;99.90;;;;;;5015935;28;20252;-67
2023/09/29 04:25:10;;;;;;;3.90;2.05;;;17.30;99.90;;;;;;5011454;28;20047;-69
2023/09/29 04:27:41;;;;;;;5.15;2.20;;;17.40;99.90;;;;;;5012508;28;20045;-69
2023/09/29 04:30:12;;;;;;;7.60;2.38;;;17.40;99.90;;;;;;5028665;28;20033;-69
2023/09/29 04:32:47;;;;;;;6.50;2.67;;;17.40;99.90;;;;;;5020414;28;20501;-69
2023/09/29 04:35:22;;;;;;;7.38;3.15;;;17.40;99.90;;;;;;5027853;28;20060;-69
2023/09/29 04:38:45;;;;;;;7.85;3.55;;;17.40;99.90;;;;;;5012272;28;20037;-69
2023/09/29 04:41:48;;;;;;;5.22;2.70;;;17.40;99.90;;;;;;4999436;28;20490;-69
2023/09/29 04:44:22;;;;;;;7.13;3.05;;;17.50;99.90;;;;;;5022703;28;20052;-69
2023/09/29 04:47:04;;;;;;;8.10;3.22;;;17.50;99.90;;;;;;5026182;28;20045;-69
2023/09/29 04:49:32;;;;;;;7.15;3.15;;;17.50;99.90;;;;;;5021498;28;20038;-69
2023/09/29 04:52:19;;;;;;;5.45;3.35;;;17.60;99.90;;;;;;5027705;28;20050;-68
2023/09/29 04:54:45;;;;;;;6.50;2.50;;;17.70;99.90;;;;;;5026912;28;20040;-70
2023/09/29 04:57:11;;;;;;;9.05;2.45;;;17.70;99.90;;;;;;5021417;28;20033;-69
2023/09/29 04:59:57;;;;;;;3.45;1.73;;;17.70;99.90;;;;;;5037702;28;20124;-68
2023/09/29 05:02:57;;;;;;;7.45;2.28;;;17.80;99.90;;;;;;5051210;28;20036;-68
2023/09/29 05:05:41;;;;;;;8.38;3.05;;;17.80;99.90;;;;;;5045014;28;20033;-69
2023/09/29 05:08:52;;;;;;;5.30;3.00;;;17.80;99.90;;;;;;5039410;28;20032;-68
2023/09/29 05:11:33;;;;;;;4.97;2.80;;;17.90;99.90;;;;;;5025272;28;20029;-69
2023/09/29 05:14:34;;;;;;;5.35;2.45;;;17.80;99.90;;;;;;5040423;28;20446;-69
2023/09/29 05:17:09;;;;;;;4.30;2.53;;;17.80;99.90;;;;;;5047967;28;20072;-69
2023/09/29 05:19:37;;;;;;;5.53;2.25;;;17.90;99.90;;;;;;5048231;28;20045;-69
2023/09/29 05:22:03;;;;;;;6.82;2.60;;;17.90;99.90;;;;;;5049812;28;20041;-69
2023/09/29 05:24:53;;;;;;;5.82;2.35;;;17.80;99.90;;;;;;5043152;28;20044;-72
2023/09/29 05:27:29;;;;;;;4.68;2.95;;;17.90;99.90;;;;;;5049526;28;20044;-69
2023/09/29 05:29:56;;;;;;;5.10;2.72;;;17.90;99.90;;;;;;5043818;28;20029;-68
2023/09/29 05:32:23;;;;;;;5.43;2.67;;;17.80;99.90;;;;;;5033118;28;20396;-70
2023/09/29 05:35:01;;;;;;;4.55;2.38;;;17.90;99.90;;;;;;5042770;28;20024;-69
2023/09/29 05:38:15;;;;;;;5.07;2.58;;;17.90;99.90;;;;;;5050968;28;20028;-70
2023/09/29 05:40:51;;;;;;;4.18;2.03;;;17.90;99.90;;;;;;5008770;28;20034;-70
2023/09/29 05:43:17;;;;;;;5.75;2.28;;;17.90;99.90;;;;;;4992235;28;20040;-68
2023/09/29 05:45:52;;;;;;;3.63;2.15;;;17.90;99.90;;;;;;5008040;28;20157;-69
2023/09/29 05:49:05;;;;;;;9.23;2.92;;;17.90;99.90;;;;;;5012514;28;20030;-69
2023/09/29 05:51:37;;;;;;;4.05;1.88;;;17.90;99.90;;;;;;4949590;28;20082;-68
2023/09/29 05:54:28;;;;;;;3.33;2.00;;;18.00;99.90;;;;;;4953321;28;20042;-70
2023/09/29 05:56:54;;;;;;;5.57;2.67;;;18.10;99.90;;;;;;4952002;28;20103;-68
2023/09/29 05:59:21;;;;;;;7.20;2.97;;;18.20;99.90;;;;;;4942559;28;20039;-68
2023/09/29 06:03:07;;;;;;;7.53;2.20;;;18.20;99.90;;;;;;4942580;28;20049;-71
2023/09/29 06:05:54;;;;;;;6.93;2.85;;;18.30;99.90;;;;;;4947645;28;20047;-69
2023/09/29 06:08:50;;;;;;;7.05;2.92;;;18.30;99.90;;;;;;4952907;28;20043;-69
2023/09/29 06:11:16;;;;;;;8.45;2.30;;;18.30;99.90;;;;;;4954147;28;20217;-68
2023/09/29 06:14:00;;;;;;;8.35;3.00;;;18.30;99.90;;;;;;4952837;28;20118;-69
2023/09/29 06:16:32;;;;;;;5.35;2.63;;;18.30;99.90;;;;;;4953816;28;20086;-68
2023/09/29 06:20:01;;;;;;;7.47;2.60;;;18.30;99.90;;;;;;4952632;28;20054;-68
2023/09/29 06:22:27;;;;;;;5.13;2.67;;;18.30;99.90;;;;;;4928729;29;20118;-68
2023/09/29 06:25:41;;;;;;;6.15;2.47;;;18.30;99.90;;;;;;4916576;29;20203;-69
2023/09/29 06:28:07;;;;;;;3.00;2.03;;;18.40;99.90;;;;;;4886626;29;20032;-69
2023/09/29 06:30:57;;;;;;;5.35;2.58;;;18.30;99.90;;;;;;4979844;28;20109;-68
2023/09/29 06:33:44;;;;;;;6.00;2.08;;;18.40;99.90;;;;;;4970696;28;20043;-69
2023/09/29 06:36:10;;;;;;;3.70;1.92;;;18.40;99.90;;;;;;4977763;28;20034;-68
2023/09/29 06:39:20;;;;;;;7.03;2.55;;;18.40;99.90;;;;;;4999764;28;20053;-69
2023/09/29 06:41:58;;;;;;;3.97;1.80;;;18.40;99.90;;;;;;4989458;28;20089;-68
2023/09/29 06:44:32;;;;;;;3.83;1.65;;;18.40;99.90;;;;;;4991128;28;20042;-69
2023/09/29 06:50:48;;;;;;;5.47;2.13;;;18.40;99.90;;;;;;4985192;28;20063;-68
2023/09/29 06:53:14;;;;;;;3.97;2.33;;;18.50;99.90;;;;;;4991111;28;20173;-69
2023/09/29 06:55:46;;;;;;;3.78;1.88;;;18.60;99.90;;;;;;4991598;28;20125;-69
2023/09/29 06:59:01;;;;;;;8.93;2.55;;;18.70;99.90;;;;;;4983665;28;20426;-68
2023/09/29 07:01:29;;;;;;;4.88;2.08;;;18.80;99.90;;;;;;5009293;28;20124;-69
2023/09/29 07:04:23;;;;;;;5.35;2.00;;;18.90;99.90;;;;;;5022560;28;20125;-69
2023/09/29 07:06:57;;;;;;;5.65;1.83;;;19.00;99.90;;;;;;5030509;28;20449;-68
2023/09/29 07:09:29;;;;;;;4.93;2.42;;;19.00;99.90;;;;;;5023232;28;20041;-69
2023/09/29 07:11:58;;;;;;;6.82;2.50;;;18.90;99.90;;;;;;5036861;28;20501;-68
2023/09/29 07:14:33;;;;;;;7.07;2.60;;;19.00;99.90;;;;;;5045394;28;20037;-68
2023/09/29 07:17:01;;;;;;;4.80;2.38;;;19.00;99.90;;;;;;5052906;28;20029;-68
2023/09/29 07:20:30;;;;;;;5.82;2.72;;;19.10;99.90;;;;;;5045297;28;20041;-68
2023/09/29 07:23:03;;;;;;;5.68;2.03;;;19.10;99.90;;;;;;5048283;28;20049;-69
2023/09/29 07:25:29;;;;;;;5.80;1.95;;;19.10;99.90;;;;;;5050154;28;20653;-69
2023/09/29 07:29:01;;;;;;;5.78;2.03;;;19.20;99.90;;;;;;5050077;28;20044;-68
2023/09/29 07:32:10;;;;;;;9.95;2.58;;;19.30;99.90;;;;;;5044329;28;20036;-69
2023/09/29 07:38:10;;;;;;;5.05;2.75;;;19.30;99.90;;;;;;4957638;28;20586;-69
2023/09/29 07:40:41;;;;;;;7.93;2.50;;;19.30;99.90;;;;;;4955291;28;20042;-70
2023/09/29 07:43:10;;;;;;;5.55;2.13;;;19.30;99.90;;;;;;4947612;28;20117;-69
2023/09/29 07:45:41;;;;;;;4.95;2.05;;;19.30;99.90;;;;;;4971087;28;20137;-69
2023/09/29 07:48:14;;;;;;;4.57;2.33;;;19.30;99.90;;;;;;4963069;28;20154;-69
2023/09/29 07:50:40;;;;;;;6.65;2.08;;;19.30;99.90;;;;;;4971190;28;20403;-69
2023/09/29 07:53:24;;;;;;;4.78;2.35;;;19.40;99.90;;;;;;4954242;28;20054;-69
2023/09/29 07:56:22;;;;;;;3.33;2.08;;;19.60;99.90;;;;;;4954801;28;20066;-69
2023/09/29 07:58:58;;;;;;;5.25;2.13;;;19.70;99.90;;;;;;4938245;28;20411;-69
2023/09/29 08:01:29;;;;;;;13.05;2.05;;;19.80;99.90;;;;;;4970994;28;20113;-69
2023/09/29 08:04:35;;;;;;;4.82;1.77;;;20.00;99.90;;;;;;4969420;28;20476;-69
2023/09/29 08:08:14;;;;;;;3.03;1.80;;;20.00;99.90;;;;;;4970678;28;20058;-69
2023/09/29 08:10:42;;;;;;;3.90;2.15;;;20.10;99.90;;;;;;4974705;28;20085;-69
2023/09/29 08:13:07;;;;;;;5.47;1.90;;;20.20;99.90;;;;;;5009308;28;20197;-69
2023/09/29 08:15:42;;;;;;;3.60;2.28;;;20.40;99.90;;;;;;5021039;28;20041;-69
2023/09/29 08:18:20;;;;;;;3.90;1.95;;;20.60;99.90;;;;;;5029179;28;20030;-69
2023/09/29 08:20:51;;;;;;;3.17;1.85;;;20.60;99.90;;;;;;5014503;28;20537;-69
2023/09/29 08:23:22;;;;;;;4.82;2.13;;;20.70;99.90;;;;;;5008703;28;20033;-69
2023/09/29 08:27:04;;;;;;;3.47;1.90;;;20.70;99.90;;;;;;5026117;28;20049;-69
2023/09/29 08:29:43;;;;;;;7.57;2.00;;;20.90;99.90;;;;;;4973077;28;20043;-69
2023/09/29 08:32:11;;;;;;;5.35;1.90;;;21.00;99.90;;;;;;4970428;28;20034;-69
2023/09/29 08:34:43;;;;;;;5.50;2.20;;;21.20;99.90;;;;;;4969838;28;20471;-69
2023/09/29 08:37:22;;;;;;;4.55;2.08;;;21.20;99.90;;;;;;4978371;28;20035;-69
2023/09/29 08:40:55;;;;;;;7.97;2.17;;;21.30;99.90;;;;;;4970044;28;20639;-69
2023/09/29 08:43:28;;;;;;;7.45;1.73;;;21.40;99.90;;;;;;4925238;29;20107;-69
2023/09/29 08:45:58;;;;;;;5.32;2.47;;;21.40;99.90;;;;;;4940059;28;20097;-69
2023/09/29 08:49:03;;;;;;;4.70;2.03;;;21.50;99.90;;;;;;4975523;28;20075;-69
2023/09/29 08:51:36;;;;;;;4.28;1.90;;;21.50;99.90;;;;;;4959886;28;20400;-69
2023/09/29 08:54:08;;;;;;;9.18;2.50;;;21.60;99.90;;;;;;4969296;28;20202;-68
2023/09/29 08:56:56;;;;;;;3.42;1.77;;;21.70;99.90;;;;;;4968141;28;20382;-68
2023/09/29 08:59:28;;;;;;;4.80;2.25;;;21.80;99.90;;;;;;4983204;28;20104;-69
2023/09/29 09:02:27;;;;;;;4.85;2.17;;;21.80;99.90;;;;;;4989301;28;20077;-69
2023/09/29 09:04:53;;;;;;;11.07;2.05;;;21.90;99.90;;;;;;4962713;28;20062;-69
2023/09/29 09:07:20;;;;;;;5.32;2.08;;;22.00;99.90;;;;;;4971532;28;20070;-69
2023/09/29 09:09:57;;;;;;;3.95;1.42;;;22.00;99.90;;;;;;4975872;28;20026;-69
2023/09/29 09:16:14;;;;;;;3.60;1.70;;;22.20;99.90;;;;;;5041302;28;20094;-69
2023/09/29 09:18:40;;;;;;;3.20;1.60;;;22.30;99.90;;;;;;5030648;28;20040;-69
2023/09/29 09:21:06;;;;;;;5.30;1.90;;;22.40;99.90;;;;;;5050451;28;20147;-69
2023/09/29 09:28:46;;;;;;;8.23;1.60;;;22.60;99.90;;;;;;5047671;28;20487;-69
2023/09/29 09:31:59;;;;;;;4.32;1.90;;;22.70;99.90;;;;;;4985844;28;20038;-69
2023/09/29 09:34:33;;;;;;;4.55;1.98;;;22.80;99.90;;;;;;4992418;28;20050;-68
2023/09/29 09:37:10;;;;;;;4.07;1.98;;;23.00;99.90;;;;;;4976575;28;20631;-68
2023/09/29 09:39:46;;;;;;;4.65;1.70;;;23.20;99.90;;;;;;4992472;28;20057;-68
2023/09/29 09:42:27;;;;;;;5.22;2.20;;;23.40;99.90;;;;;;4985116;28;20046;-69
2023/09/29 09:45:25;;;;;;;3.38;1.65;;;23.50;99.90;;;;;;4975881;28;20045;-69
2023/09/29 09:48:49;;;;;;;6.70;2.55;;;23.70;99.90;;;;;;4970798;28;20042;-69
2023/09/29 09:51:36;;;;;;;8.27;1.83;;;23.80;99.90;;;;;;4985946;28;20114;-69
2023/09/29 09:54:09;;;;;;;16.02;2.38;;;24.00;99.90;;;;;;4992004;28;20057;-68
2023/09/29 09:57:22;;;;;;;3.42;1.42;;;24.00;99.90;;;;;;4992891;28;20814;-69
2023/09/29 09:59:54;;;;;;;7.82;1.90;;;24.30;99.90;;;;;;4992181;28;20210;-68
2023/09/29 10:02:51;;;;;;;2.72;1.63;;;24.10;99.90;;;;;;4992759;28;20092;-69
2023/09/29 10:05:40;;;;;;;2.58;1.42;;;24.10;99.90;;;;;;4981387;28;20062;-68
2023/09/29 10:08:30;;;;;;;5.60;1.52;;;24.30;99.90;;;;;;5048453;28;20504;-68
2023/09/29 10:11:27;;;;;;;3.53;1.50;;;24.40;99.90;;;;;;5052787;28;20554;-68
2023/09/29 10:15:06;;;;;;;3.00;1.85;;;24.60;99.90;;;;;;5052002;28;20063;-68
2023/09/29 10:18:28;;;;;;;5.20;1.75;;;25.00;99.90;;;;;;5008653;28;20030;-69
2023/09/29 10:21:06;;;;;;;5.68;2.03;;;25.20;99.90;;;;;;5019746;28;20056;-70
2023/09/29 10:23:53;;;;;;;5.22;2.28;;;25.50;99.90;;;;;;5027835;28;20037;-68
2023/09/29 10:26:51;;;;;;;2.60;1.60;;;25.50;99.90;;;;;;4997479;28;20057;-68
2023/09/29 10:29:32;;;;;;;3.80;1.88;;;25.60;99.90;;;;;;4990232;28;20050;-70
2023/09/29 10:32:22;;;;;;;2.53;1.33;;;25.40;99.90;;;;;;5013452;28;20062;-68
2023/09/29 10:35:20;;;;;;;4.55;1.80;;;25.50;99.90;;;;;;5010998;28;20496;-68
2023/09/29 10:38:12;;;;;;;2.78;1.42;;;25.40;99.90;;;;;;5011818;28;20041;-68
2023/09/29 10:41:18;;;;;;;4.15;1.73;;;25.70;99.90;;;;;;5011334;28;20046;-69
2023/09/29 10:43:48;;;;;;;4.93;1.50;;;25.50;99.90;;;;;;5002465;28;20153;-70
2023/09/29 10:46:25;;;;;;;4.88;1.85;;;25.70;99.90;;;;;;5011523;28;20042;-68
2023/09/29 10:48:54;;;;;;;2.53;1.40;;;25.80;99.90;;;;;;5012857;28;20402;-68
2023/09/29 10:51:31;;;;;;;3.83;1.70;;;25.30;99.90;;;;;;5028746;28;20126;-69
2023/09/29 10:54:07;;;;;;;6.05;1.63;;;25.50;99.90;;;;;;5051452;28;20093;-69
2023/09/29 10:56:37;;;;;;;4.72;1.42;;;25.60;99.90;;;;;;5052072;28;20032;-69
2023/09/29 10:59:09;;;;;;;3.17;1.70;;;25.50;99.90;;;;;;5051354;28;20021;-69
2023/09/29 11:01:38;;;;;;;2.92;1.63;;;25.50;99.90;;;;;;5055216;28;20076;-69
2023/09/29 11:04:28;;;;;;;3.75;1.75;;;25.40;99.90;;;;;;5050869;28;20065;-69
2023/09/29 11:06:54;;;;;;;2.85;1.33;;;25.30;99.90;;;;;;5042477;28;20044;-69
2023/09/29 11:09:25;;;;;;;5.35;1.60;;;25.70;99.90;;;;;;5052225;28;20396;-69
2023/09/29 11:11:56;;;;;;;3.45;1.38;;;26.10;99.90;;;;;;5053176;28;20029;-69
2023/09/29 11:14:41;;;;;;;3.50;1.45;;;26.70;99.90;;;;;;5051634;28;20059;-69
2023/09/29 11:17:22;;;;;;;3.05;1.70;;;27.10;98.40;;;;;;5052938;28;20025;-69
2023/09/29 11:19:58;;;;;;;2.80;1.65;;;27.30;99.00;;;;;;5051698;28;20033;-69
2023/09/29 11:23:21;;;;;;;4.13;1.40;;;27.50;98.30;;;;;;5053025;28;20029;-68
2023/09/29 11:26:07;;;;;;;3.33;1.45;;;27.80;97.20;;;;;;5033418;28;20052;-69
2023/09/29 11:28:41;;;;;;;4.47;1.67;;;27.90;97.10;;;;;;5050333;28;20044;-69
2023/09/29 11:31:41;;;;;;;2.83;1.48;;;28.10;97.90;;;;;;5049821;28;20025;-68
2023/09/29 11:34:13;;;;;;;3.78;1.98;;;28.20;96.10;;;;;;5049244;28;20105;-69
2023/09/29 11:36:48;;;;;;;4.50;1.92;;;28.30;96.50;;;;;;5050035;28;20076;-69
2023/09/29 11:40:26;;;;;;;5.35;1.40;;;29.00;96.00;;;;;;5042362;28;20037;-69
2023/09/29 11:44:20;;;;;;;6.00;1.38;;;28.80;95.20;;;;;;4984686;28;20050;-69
2023/09/29 11:46:46;;;;;;;3.03;1.30;;;29.10;94.90;;;;;;4897089;29;20092;-70
2023/09/29 11:49:41;;;;;;;4.93;1.58;;;29.30;94.20;;;;;;4923388;29;20087;-69
2023/09/29 11:52:12;;;;;;;2.80;1.45;;;30.30;92.50;;;;;;4932001;29;20484;-67
2023/09/29 11:55:05;;;;;;;3.22;1.38;;;29.50;93.00;;;;;;4931919;29;20064;-69
2023/09/29 11:57:40;;;;;;;2.53;1.20;;;28.30;95.10;;;;;;4927542;29;20039;-69
2023/09/29 12:00:10;;;;;;;11.38;1.73;;;28.00;96.80;;;;;;4918805;29;20040;-69
2023/09/29 12:02:37;;;;;;;;;;;27.80;97.10;;;;;;4921169;28;20704;-69
2023/09/29 12:05:07;;;;;;;4.03;1.40;;;27.30;97.70;;;;;;4970626;28;19924;-69
2023/09/29 12:07:39;;;;;;;2.40;1.40;;;26.90;99.00;;;;;;4955009;28;20041;-69
2023/09/29 12:10:49;;;;;;;2.78;1.58;;;26.60;99.90;;;;;;4984946;28;20034;-69
2023/09/29 12:13:31;;;;;;;10.00;1.48;;;26.70;99.90;;;;;;4951433;28;20054;-69
2023/09/29 12:16:15;;;;;;;2.25;1.27;;;26.60;99.90;;;;;;4976771;28;20108;-69
2023/09/29 12:18:42;;;;;;;2.33;1.25;;;26.80;99.90;;;;;;5028347;28;20069;-69
2023/09/29 12:21:38;;;;;;;4.75;1.58;;;26.80;98.80;;;;;;5028999;28;20029;-69
2023/09/29 12:24:10;;;;;;;2.42;1.25;;;26.80;98.20;;;;;;5043689;28;20065;-68
2023/09/29 12:26:46;;;;;;;2.50;1.00;;;26.90;97.70;;;;;;5031416;28;20026;-69
2023/09/29 12:29:30;;;;;;;2.08;1.45;;;26.90;97.00;;;;;;5019662;28;20072;-68
2023/09/29 12:32:09;;;;;;;10.15;2.42;;;27.30;97.00;;;;;;5029029;28;20116;-69
2023/09/29 12:34:38;;;;;;;2.65;1.10;;;28.60;95.30;;;;;;5026747;28;20037;-70
2023/09/29 12:37:11;;;;;;;2.85;1.30;;;28.90;93.30;;;;;;5029090;28;20044;-68
2023/09/29 12:39:43;;;;;;;2.17;0.90;;;28.40;94.20;;;;;;5027076;28;20041;-69
2023/09/29 12:42:15;;;;;;;2.00;0.88;;;28.70;93.10;;;;;;5029079;28;20049;-69
2023/09/29 12:44:46;;;;;;;2.47;0.90;;;28.90;92.60;;;;;;5010115;28;20052;-69
2023/09/29 12:47:27;;;;;;;3.85;0.77;;;28.90;92.60;;;;;;5029024;28;20379;-69
2023/09/29 12:49:53;;;;;;;2.58;1.00;;;29.30;92.80;;;;;;5036316;28;20615;-70
2023/09/29 12:52:25;;;;;;;2.42;1.02;;;28.10;94.00;;;;;;5051143;28;20082;-69
2023/09/29 12:55:19;;;;;;;2.05;1.20;;;27.60;95.60;;;;;;5048145;28;20037;-69
2023/09/29 12:57:48;;;;;;;2.47;1.00;;;27.40;97.10;;;;;;5049734;28;20547;-69
2023/09/29 13:00:19;;;;;;;6.72;1.00;;;26.60;99.00;;;;;;5049343;28;20039;-69
2023/09/29 13:03:22;;;;;;;3.35;1.20;;;26.40;99.90;;;;;;5054265;28;20434;-69
2023/09/29 13:06:03;;;;;;;2.05;1.30;;;25.90;99.90;;;;;;5049594;28;20044;-70
2023/09/29 13:08:45;;;;;;;2.78;1.45;;;25.60;99.90;;;;;;5049411;28;20135;-71
2023/09/29 13:12:19;;;;;;;;;;;;;;;;;;;;;
2023/09/29 13:14:45;;;;;;;2.50;1.15;;;25.30;99.90;;;;;;5048237;28;20045;-71
2023/09/29 13:17:48;;;;;;;2.13;0.95;;;25.30;99.90;;;;;;5051545;28;20045;-70
2023/09/29 13:20:20;;;;;;;12.45;1.60;;;25.30;99.90;;;;;;5043725;28;20029;-70
2023/09/29 13:22:55;;;;;;;2.38;1.35;;;25.30;99.90;;;;;;5050843;28;20029;-70
2023/09/29 13:25:28;;;;;;;3.58;1.20;;;25.60;99.90;;;;;;5048493;28;20043;-70
2023/09/29 13:28:12;;;;;;;5.22;1.45;;;25.70;99.90;;;;;;5051125;28;20043;-70
2023/09/29 13:31:19;;;;;;;2.42;1.40;;;25.90;99.90;;;;;;5051802;28;20039;-70
2023/09/29 13:33:45;;;;;;;5.82;1.48;;;25.40;99.90;;;;;;5004569;28;20049;-71
2023/09/29 13:36:23;;;;;;;9.07;2.50;;;25.00;99.90;;;;;;5008758;28;20046;-71
2023/09/29 13:39:27;;;;;;;4.47;1.67;;;24.60;99.90;;;;;;5008145;28;20041;-70
2023/09/29 13:41:53;;;;;;;4.32;1.58;;;24.40;99.90;;;;;;4950609;29;20094;-70
2023/09/29 13:44:21;;;;;;;10.75;2.70;;;24.10;99.90;;;;;;4947763;29;20455;-70
2023/09/29 13:46:56;;;;;;;8.38;2.28;;;23.90;99.90;;;;;;4950129;29;20407;-70
2023/09/29 13:49:37;;;;;;;7.43;2.35;;;23.90;99.90;;;;;;4962024;28;20080;-70
2023/09/29 13:52:19;;;;;;;10.30;2.85;;;24.00;99.90;;;;;;4992274;28;20022;-70
2023/09/29 13:54:53;;;;;;;6.82;2.65;;;23.90;99.90;;;;;;5007774;28;20134;-70
2023/09/29 13:57:52;;;;;;;13.23;3.72;;;24.00;99.90;;;;;;5008508;28;20049;-70
2023/09/29 14:00:23;;;;;;;8.73;2.53;;;24.10;99.90;;;;;;5008118;28;20038;-70
2023/09/29 14:03:41;;;;;;;6.68;2.47;;;24.10;99.90;;;;;;4992629;28;20598;-71
2023/09/29 14:06:17;;;;;;;9.20;2.88;;;24.20;99.90;;;;;;5008133;28;20045;-70
2023/09/29 14:09:26;;;;;;;8.68;3.05;;;24.40;99.90;;;;;;5010885;28;20043;-71
2023/09/29 14:11:54;;;;;;;10.82;2.90;;;24.50;99.90;;;;;;5043122;28;20064;-71
2023/09/29 14:14:55;;;;;;;20.98;4.25;;;24.60;99.90;;;;;;5051496;28;20033;-71
2023/09/29 14:21:06;;;;;;;10.73;3.22;;;24.50;99.90;;;;;;4972594;28;20464;-71
2023/09/29 14:23:35;;;;;;;19.13;4.15;;;24.50;99.90;;;;;;4956432;28;20053;-70
2023/09/29 14:26:19;;;;;;;16.13;3.42;;;24.60;99.90;;;;;;4972702;28;20126;-70
2023/09/29 14:29:38;;;;;;;20.00;5.68;;;24.40;99.90;;;;;;4972750;28;20039;-71
2023/09/29 14:32:04;;;;;;;11.52;3.88;;;24.30;99.80;;;;;;4960728;28;20054;-70
2023/09/29 14:35:00;;;;;;;21.48;4.95;;;24.20;99.90;;;;;;4952044;28;20519;-69
2023/09/29 14:37:26;;;;;;;15.13;4.28;;;24.00;99.90;;;;;;4953413;28;20035;-70
2023/09/29 14:39:55;;;;;;;18.73;5.47;;;23.70;99.90;;;;;;4928673;28;20035;-70
2023/09/29 14:42:26;;;;;;;16.27;4.63;;;23.60;99.90;;;;;;4972404;28;20034;-70
2023/09/29 14:45:02;;;;;;;18.00;4.65;;;23.50;99.90;;;;;;4971785;28;20047;-70